Terminal Aerodrome Forecast
Issued by NWS

Home | Current Version | Previous Version | Text Only | Print | Product List | Glossary On
Versions: 1 2 3 4 5 6 7 8 9 10 11 12 13 14 15 16 17 18 19 20 21
649
FTUS45 KVEF 211727
TAFVGT
TAF
KVGT 211727Z 2118/2218 33014G24KT P6SM FEW060 FEW150
     FM220000 33008KT P6SM FEW120 SCT200
     FM220600 VRB05KT P6SM SCT080 BKN120
     FM221200 18006KT P6SM SCT060 BKN100
     FM221600 21007KT P6SM VCSH SCT040 BKN060=

USA.gov is the U.S. government's official web portal to all federal, state and local government web resources and services.